createdAt,value
2022-11-29T00:01:23.520Z,14.77
2022-11-29T00:03:52.026Z,15.30
2022-11-29T00:06:21.694Z,14.10
2022-11-29T00:08:50.339Z,12.87
2022-11-29T00:11:40.240Z,13.60
2022-11-29T00:14:09.591Z,12.60
2022-11-29T00:16:40.822Z,12.90
2022-11-29T00:19:09.223Z,13.57
2022-11-29T00:21:37.137Z,13.30
2022-11-29T00:24:05.478Z,12.23
2022-11-29T00:26:33.425Z,13.47
2022-11-29T00:29:01.352Z,13.37
2022-11-29T00:31:31.236Z,13.00
2022-11-29T00:34:02.103Z,12.90
2022-11-29T00:36:30.497Z,12.90
2022-11-29T00:38:58.406Z,12.57
2022-11-29T00:41:26.825Z,13.33
2022-11-29T00:43:54.895Z,13.10
2022-11-29T00:46:22.852Z,13.43
2022-11-29T00:48:50.779Z,13.90
2022-11-29T00:51:20.098Z,12.90
2022-11-29T00:53:48.233Z,13.13
2022-11-29T00:56:16.267Z,12.80
2022-11-29T00:58:44.453Z,13.50
2022-11-29T01:01:12.857Z,12.13
2022-11-29T01:03:41.000Z,14.10
2022-11-29T01:06:11.031Z,12.50
2022-11-29T01:08:40.741Z,12.97
2022-11-29T01:11:12.579Z,14.40
2022-11-29T01:13:41.148Z,12.87
2022-11-29T01:16:09.943Z,13.47
2022-11-29T01:18:38.613Z,14.63
2022-11-29T01:21:08.675Z,13.80
2022-11-29T01:23:38.067Z,13.60
2022-11-29T01:26:09.454Z,14.50
2022-11-29T01:28:37.968Z,13.47
2022-11-29T01:31:09.246Z,12.77
2022-11-29T01:33:37.579Z,13.47
2022-11-29T01:36:06.457Z,13.50
2022-11-29T01:38:34.647Z,14.03
2022-11-29T01:41:04.383Z,15.03
2022-11-29T01:43:33.928Z,16.63
2022-11-29T01:46:01.915Z,15.43
2022-11-29T01:48:31.639Z,15.60
2022-11-29T01:51:02.545Z,15.67
2022-11-29T01:53:30.604Z,15.60
2022-11-29T01:56:01.914Z,14.60
2022-11-29T01:58:30.452Z,14.60
2022-11-29T02:01:00.330Z,14.60
2022-11-29T02:03:28.513Z,12.87
2022-11-29T02:05:56.510Z,14.30
2022-11-29T02:08:28.907Z,14.33
2022-11-29T02:11:18.929Z,13.93
2022-11-29T02:13:54.032Z,13.50
2022-11-29T02:16:25.961Z,14.30
2022-11-29T02:19:01.076Z,13.53
2022-11-29T02:21:34.803Z,14.40
2022-11-29T02:24:20.791Z,15.00
2022-11-29T02:27:15.527Z,15.10
2022-11-29T02:30:13.603Z,15.03
2022-11-29T02:33:07.031Z,13.60
2022-11-29T02:35:49.831Z,14.63
2022-11-29T02:38:31.008Z,15.17
2022-11-29T02:41:08.732Z,15.23
2022-11-29T02:44:00.600Z,15.33
2022-11-29T02:46:44.083Z,15.80
2022-11-29T02:49:17.732Z,16.20
2022-11-29T02:51:49.188Z,15.80
2022-11-29T02:54:23.937Z,15.83
2022-11-29T02:56:56.156Z,14.67
2022-11-29T02:59:35.781Z,14.23
2022-11-29T03:02:09.369Z,14.60
2022-11-29T03:04:42.569Z,15.87
2022-11-29T03:07:16.763Z,16.40
2022-11-29T03:09:47.574Z,17.80
2022-11-29T03:12:20.723Z,18.50
2022-11-29T03:14:57.504Z,18.57
2022-11-29T03:17:32.641Z,17.03
2022-11-29T03:20:23.912Z,19.90
2022-11-29T03:23:04.096Z,15.27
2022-11-29T03:25:35.039Z,15.40
2022-11-29T03:28:06.792Z,15.37
2022-11-29T03:30:37.027Z,14.07
2022-11-29T03:33:09.582Z,13.50
2022-11-29T03:35:43.784Z,14.07
2022-11-29T03:38:20.521Z,14.20
2022-11-29T03:40:51.597Z,14.50
2022-11-29T03:43:21.539Z,15.57
2022-11-29T03:45:53.497Z,14.43
2022-11-29T03:48:24.934Z,15.07
2022-11-29T03:50:57.761Z,13.53
2022-11-29T03:53:33.157Z,14.13
2022-11-29T03:56:02.829Z,14.57
2022-11-29T03:58:40.388Z,15.50
2022-11-29T04:01:40.640Z,15.47
2022-11-29T04:04:43.917Z,14.17
2022-11-29T04:07:27.650Z,15.07
2022-11-29T04:10:16.513Z,16.90
2022-11-29T04:13:19.248Z,15.27
2022-11-29T04:16:16.943Z,14.50
2022-11-29T04:19:02.444Z,15.60
2022-11-29T04:21:34.343Z,15.77
2022-11-29T04:24:54.417Z,14.43
2022-11-29T04:27:41.980Z,16.03
2022-11-29T04:30:17.789Z,15.67
2022-11-29T04:33:06.769Z,15.40
2022-11-29T04:35:41.279Z,15.20
2022-11-29T04:38:30.016Z,17.00
2022-11-29T04:41:23.772Z,16.37
2022-11-29T04:44:11.599Z,17.50
2022-11-29T04:46:53.668Z,19.03
2022-11-29T04:49:35.260Z,18.90
2022-11-29T04:52:25.121Z,17.20
2022-11-29T04:54:58.300Z,17.80
2022-11-29T04:57:33.406Z,18.90
2022-11-29T05:00:08.172Z,16.60
2022-11-29T05:02:42.210Z,17.50
2022-11-29T05:05:19.934Z,18.17
2022-11-29T05:07:55.033Z,17.27
2022-11-29T05:10:30.367Z,18.70
2022-11-29T05:13:07.481Z,18.83
2022-11-29T05:15:54.955Z,19.50
2022-11-29T05:18:28.690Z,18.53
2022-11-29T05:21:01.867Z,19.27
2022-11-29T05:23:40.125Z,19.43
2022-11-29T05:26:11.632Z,19.50
2022-11-29T05:28:46.468Z,20.40
2022-11-29T05:31:44.047Z,21.40
2022-11-29T05:34:31.696Z,20.07
2022-11-29T05:37:09.457Z,19.33
2022-11-29T05:39:42.835Z,20.93
2022-11-29T05:42:37.006Z,21.97
2022-11-29T05:45:11.156Z,23.13
2022-11-29T05:47:43.899Z,21.50
2022-11-29T05:50:15.280Z,22.40
2022-11-29T05:52:51.323Z,19.50
2022-11-29T05:55:26.379Z,19.70
2022-11-29T05:57:58.586Z,20.27
2022-11-29T06:00:30.299Z,20.53
2022-11-29T06:03:00.863Z,20.00
2022-11-29T06:05:35.145Z,20.90
2022-11-29T06:08:07.122Z,20.03
2022-11-29T06:10:37.926Z,19.87
2022-11-29T06:13:12.791Z,20.67
2022-11-29T06:16:09.445Z,19.10
2022-11-29T06:18:55.805Z,21.60
2022-11-29T06:21:32.611Z,19.70
2022-11-29T06:24:11.586Z,20.63
2022-11-29T06:26:53.123Z,21.30
2022-11-29T06:29:28.884Z,22.57
2022-11-29T06:32:05.005Z,20.40
2022-11-29T06:34:40.300Z,21.53
2022-11-29T06:37:14.815Z,21.13
2022-11-29T06:39:43.032Z,20.20
2022-11-29T06:42:10.868Z,20.40
2022-11-29T06:44:39.370Z,20.00
2022-11-29T06:47:11.901Z,19.83
2022-11-29T06:49:41.759Z,28.17
2022-11-29T06:52:18.619Z,25.63
2022-11-29T06:54:56.039Z,24.00
2022-11-29T06:57:28.696Z,22.03
2022-11-29T07:00:05.162Z,20.40
2022-11-29T07:03:14.278Z,20.87
2022-11-29T07:05:44.045Z,20.30
2022-11-29T07:08:15.414Z,19.20
2022-11-29T07:10:44.622Z,17.77
2022-11-29T07:13:13.759Z,19.17
2022-11-29T07:15:43.656Z,18.50
2022-11-29T07:18:18.865Z,17.27
2022-11-29T07:20:55.818Z,18.50
2022-11-29T07:23:32.473Z,18.50
2022-11-29T07:26:08.835Z,17.53
2022-11-29T07:28:45.638Z,17.37
2022-11-29T07:31:17.884Z,17.43
2022-11-29T07:33:53.833Z,17.57
2022-11-29T07:36:27.585Z,18.17
2022-11-29T07:39:03.838Z,16.83
2022-11-29T07:41:39.752Z,17.17
2022-11-29T07:44:13.421Z,17.00
2022-11-29T07:46:41.430Z,18.87
2022-11-29T07:49:11.565Z,18.33
2022-11-29T07:51:40.781Z,20.57
2022-11-29T07:54:08.763Z,20.77
2022-11-29T07:56:36.609Z,17.90
2022-11-29T07:59:04.520Z,18.63
2022-11-29T08:01:32.580Z,20.73
2022-11-29T08:04:00.428Z,21.50
2022-11-29T08:06:28.354Z,21.90
2022-11-29T08:09:00.090Z,22.50
2022-11-29T08:11:28.367Z,20.10
2022-11-29T08:13:57.406Z,19.40
2022-11-29T08:16:25.310Z,19.23
2022-11-29T08:18:53.223Z,18.83
2022-11-29T08:21:21.194Z,19.03
2022-11-29T08:23:49.851Z,20.00
2022-11-29T08:26:20.174Z,20.53
2022-11-29T08:28:52.194Z,20.50
2022-11-29T08:31:21.106Z,19.50
2022-11-29T08:33:49.195Z,21.27
2022-11-29T08:36:18.930Z,30.80
2022-11-29T08:38:47.276Z,18.80
2022-11-29T08:41:17.309Z,19.97
2022-11-29T08:43:46.520Z,20.13
2022-11-29T08:46:18.574Z,21.80
2022-11-29T08:48:47.059Z,21.53
2022-11-29T08:51:15.550Z,20.53
2022-11-29T08:53:42.449Z,19.00
2022-11-29T08:56:41.863Z,20.47
2022-11-29T08:59:00.503Z,18.37
2022-11-29T09:01:29.232Z,20.47
2022-11-29T09:04:00.562Z,20.07
2022-11-29T09:06:30.401Z,20.23
2022-11-29T09:08:59.301Z,18.73
2022-11-29T09:11:29.030Z,20.63
2022-11-29T09:14:01.119Z,22.33
2022-11-29T09:16:30.664Z,19.00
2022-11-29T09:18:58.558Z,18.50
2022-11-29T09:21:28.833Z,19.17
2022-11-29T09:24:00.425Z,18.20
2022-11-29T09:26:29.929Z,18.90
2022-11-29T09:29:01.552Z,18.90
2022-11-29T09:31:30.824Z,19.33
2022-11-29T09:33:59.126Z,20.33
2022-11-29T09:36:29.089Z,17.80
2022-11-29T09:38:57.224Z,19.13
2022-11-29T09:41:45.596Z,20.33
2022-11-29T09:44:22.188Z,33.63
2022-11-29T09:46:58.829Z,19.30
2022-11-29T09:49:45.982Z,18.77
2022-11-29T09:52:17.764Z,18.67
2022-11-29T09:54:53.152Z,18.50
2022-11-29T09:57:23.712Z,19.27
2022-11-29T09:59:55.406Z,19.33
2022-11-29T10:02:27.799Z,20.13
2022-11-29T10:04:58.631Z,19.67
2022-11-29T10:07:34.125Z,25.20
2022-11-29T10:10:05.267Z,22.20
2022-11-29T10:12:37.098Z,18.60
2022-11-29T10:15:13.817Z,20.03
2022-11-29T10:17:44.466Z,21.03
2022-11-29T10:20:15.909Z,19.57
2022-11-29T10:22:49.368Z,19.67
2022-11-29T10:25:21.523Z,21.50
2022-11-29T10:27:49.484Z,21.30
2022-11-29T10:30:19.284Z,20.70
2022-11-29T10:32:49.917Z,21.33
2022-11-29T10:35:20.184Z,21.90
2022-11-29T10:38:07.751Z,21.13
2022-11-29T10:40:39.097Z,21.47
2022-11-29T10:43:07.099Z,22.50
2022-11-29T10:45:39.123Z,22.37
2022-11-29T10:48:10.924Z,22.07
2022-11-29T10:50:42.692Z,22.37
2022-11-29T10:53:12.356Z,23.73
2022-11-29T10:55:43.236Z,23.17
2022-11-29T10:58:24.852Z,21.87
2022-11-29T11:00:58.979Z,41.70
2022-11-29T11:03:30.372Z,27.97
2022-11-29T11:06:03.886Z,29.47
2022-11-29T11:08:33.172Z,21.30
2022-11-29T11:11:02.370Z,20.10
2022-11-29T11:13:31.946Z,21.60
2022-11-29T11:16:10.807Z,37.73
2022-11-29T11:18:39.288Z,26.33
2022-11-29T11:21:10.117Z,21.47
2022-11-29T11:23:43.662Z,22.90
2022-11-29T11:26:13.338Z,21.80
2022-11-29T11:28:44.969Z,19.87
2022-11-29T11:31:14.992Z,24.17
2022-11-29T11:33:46.326Z,21.33
2022-11-29T11:36:16.522Z,23.73
2022-11-29T11:38:51.685Z,17.67
2022-11-29T11:41:45.054Z,22.90
2022-11-29T11:44:46.844Z,19.37
2022-11-29T11:47:18.819Z,22.67
2022-11-29T11:49:54.484Z,20.90
2022-11-29T11:52:25.330Z,20.57
2022-11-29T11:54:56.196Z,19.90
2022-11-29T11:57:25.320Z,20.00
2022-11-29T11:59:55.212Z,42.23
2022-11-29T12:02:29.364Z,22.07
2022-11-29T12:05:00.585Z,43.57
2022-11-29T12:07:59.803Z,20.10
2022-11-29T12:10:24.582Z,18.90
2022-11-29T12:12:53.582Z,22.27
2022-11-29T12:15:23.930Z,26.00
2022-11-29T12:17:57.487Z,21.30
2022-11-29T12:20:28.298Z,21.40
2022-11-29T12:23:14.572Z,21.10
2022-11-29T12:25:47.122Z,19.80
2022-11-29T12:28:20.249Z,22.70
2022-11-29T12:30:54.165Z,23.50
2022-11-29T12:33:32.412Z,21.60
2022-11-29T12:36:19.468Z,19.43
2022-11-29T12:39:01.967Z,20.57
2022-11-29T12:41:37.365Z,23.60
2022-11-29T12:44:13.261Z,24.03
2022-11-29T12:46:41.824Z,22.43
2022-11-29T12:49:16.184Z,21.10
2022-11-29T12:51:47.968Z,21.20
2022-11-29T12:54:46.050Z,19.40
2022-11-29T12:57:19.533Z,20.50
2022-11-29T13:00:02.751Z,20.97
2022-11-29T13:02:41.287Z,19.33
2022-11-29T13:05:19.073Z,20.73
2022-11-29T13:07:58.216Z,20.17
2022-11-29T13:10:31.425Z,21.20
2022-11-29T13:13:01.739Z,20.23
2022-11-29T13:15:38.193Z,21.50
2022-11-29T13:18:10.584Z,20.73
2022-11-29T13:20:44.852Z,21.80
2022-11-29T13:23:18.085Z,20.30
2022-11-29T13:25:50.736Z,20.57
2022-11-29T13:28:23.592Z,21.53
2022-11-29T13:30:52.299Z,24.63
2022-11-29T13:33:24.994Z,21.37
2022-11-29T13:35:59.522Z,20.70
2022-11-29T13:38:33.213Z,22.47
2022-11-29T13:41:06.028Z,22.87
2022-11-29T13:43:38.448Z,24.60
2022-11-29T13:46:15.471Z,41.30
2022-11-29T13:48:49.283Z,26.43
2022-11-29T13:51:30.572Z,21.10
2022-11-29T13:53:59.668Z,19.57
2022-11-29T13:56:32.858Z,18.57
2022-11-29T13:59:01.616Z,21.37
2022-11-29T14:01:29.848Z,20.13
2022-11-29T14:04:05.131Z,20.90
2022-11-29T14:06:36.095Z,19.13
2022-11-29T14:09:23.472Z,19.37
2022-11-29T14:11:58.942Z,20.77
2022-11-29T14:14:29.755Z,21.20
2022-11-29T14:17:00.667Z,28.17
2022-11-29T14:19:33.684Z,23.53
2022-11-29T14:22:22.719Z,21.40
2022-11-29T14:25:35.290Z,21.30
2022-11-29T14:28:04.428Z,20.33
2022-11-29T14:30:46.009Z,21.43
2022-11-29T14:33:23.838Z,21.07
2022-11-29T14:36:01.121Z,22.10
2022-11-29T14:38:34.400Z,21.80
2022-11-29T14:41:06.972Z,20.17
2022-11-29T14:43:36.988Z,21.13
2022-11-29T14:46:09.350Z,20.43
2022-11-29T14:48:38.227Z,20.53
2022-11-29T14:51:11.190Z,22.77
2022-11-29T14:53:42.136Z,23.97
2022-11-29T14:56:42.240Z,22.40
2022-11-29T14:59:40.239Z,20.97
2022-11-29T15:02:13.147Z,21.77
2022-11-29T15:04:41.861Z,20.40
2022-11-29T15:07:15.104Z,22.50
2022-11-29T15:09:45.671Z,21.80
2022-11-29T15:12:17.638Z,21.70
2022-11-29T15:14:50.380Z,21.60
2022-11-29T15:17:27.095Z,21.50
2022-11-29T15:20:37.575Z,20.63
2022-11-29T15:23:07.303Z,20.83
2022-11-29T15:25:36.672Z,21.00
2022-11-29T15:28:06.709Z,19.00
2022-11-29T15:30:36.320Z,19.77
2022-11-29T15:33:06.374Z,19.67
2022-11-29T15:35:35.686Z,22.20
2022-11-29T15:38:03.737Z,20.30
2022-11-29T15:40:35.538Z,19.80
2022-11-29T15:43:16.730Z,19.97
2022-11-29T15:45:48.339Z,21.87
2022-11-29T15:48:22.250Z,22.93
2022-11-29T15:50:58.793Z,25.00
2022-11-29T15:53:28.735Z,30.13
2022-11-29T15:55:58.259Z,20.37
2022-11-29T15:58:29.273Z,20.07
2022-11-29T16:00:58.272Z,20.00
2022-11-29T16:03:29.085Z,17.93
2022-11-29T16:06:05.200Z,18.30
2022-11-29T16:08:36.364Z,19.37
2022-11-29T16:11:06.475Z,18.73
2022-11-29T16:13:37.985Z,19.40
2022-11-29T16:16:15.404Z,18.63
2022-11-29T16:18:45.232Z,21.17
2022-11-29T16:21:26.390Z,17.80
2022-11-29T16:23:54.731Z,17.30
2022-11-29T16:26:24.259Z,20.40
2022-11-29T16:28:56.385Z,18.90
2022-11-29T16:31:31.855Z,18.90
2022-11-29T16:34:07.568Z,18.07
2022-11-29T16:36:35.513Z,17.33
2022-11-29T16:39:06.732Z,19.27
2022-11-29T16:41:35.913Z,18.67
2022-11-29T16:44:06.713Z,18.10
2022-11-29T16:46:37.056Z,17.27
2022-11-29T16:49:34.157Z,20.13
2022-11-29T16:52:02.260Z,17.57
2022-11-29T16:54:33.951Z,16.70
2022-11-29T16:57:05.518Z,17.90
2022-11-29T16:59:35.289Z,17.43
2022-11-29T17:02:03.382Z,18.00
2022-11-29T17:04:31.396Z,16.33
2022-11-29T17:07:00.739Z,18.93
2022-11-29T17:09:30.420Z,17.87
2022-11-29T17:12:00.037Z,16.50
2022-11-29T17:14:28.190Z,18.60
2022-11-29T17:16:56.252Z,19.57
2022-11-29T17:19:24.449Z,16.27
2022-11-29T17:21:52.587Z,15.43
2022-11-29T17:24:23.291Z,16.90
2022-11-29T17:26:51.420Z,18.63
2022-11-29T17:29:20.071Z,17.40
2022-11-29T17:31:50.468Z,18.90
2022-11-29T17:34:18.772Z,18.43
2022-11-29T17:36:46.807Z,17.83
2022-11-29T17:39:15.703Z,17.00
2022-11-29T17:41:45.048Z,16.70
2022-11-29T17:44:13.252Z,18.10
2022-11-29T17:46:41.308Z,16.23
2022-11-29T17:49:10.292Z,16.40
2022-11-29T17:51:55.513Z,17.57
2022-11-29T17:54:23.992Z,17.00
2022-11-29T17:56:53.438Z,16.20
2022-11-29T17:59:21.319Z,16.40
2022-11-29T18:01:49.348Z,17.33
2022-11-29T18:04:17.420Z,17.30
2022-11-29T18:06:50.015Z,17.37
2022-11-29T18:09:19.527Z,19.00
2022-11-29T18:11:49.881Z,18.77
2022-11-29T18:14:21.049Z,18.80
2022-11-29T18:16:49.104Z,17.30
2022-11-29T18:19:18.884Z,18.63
2022-11-29T18:21:46.841Z,17.20
2022-11-29T18:24:14.904Z,17.47
2022-11-29T18:26:42.948Z,17.53
2022-11-29T18:29:11.078Z,18.30
2022-11-29T18:31:41.944Z,18.83
2022-11-29T18:34:10.700Z,17.20
2022-11-29T18:36:42.871Z,17.27
2022-11-29T18:39:14.020Z,19.17
2022-11-29T18:41:43.397Z,19.50
2022-11-29T18:44:13.003Z,18.70
2022-11-29T18:46:43.880Z,54.53
2022-11-29T18:49:12.857Z,22.23
2022-11-29T18:51:42.943Z,22.33
2022-11-29T18:54:11.124Z,21.17
2022-11-29T18:56:39.274Z,21.50
2022-11-29T18:59:10.315Z,21.07
2022-11-29T19:01:42.606Z,22.27
2022-11-29T19:04:13.861Z,22.47
2022-11-29T19:06:42.403Z,21.57
2022-11-29T19:09:13.750Z,22.30
2022-11-29T19:11:41.735Z,23.90
2022-11-29T19:14:12.586Z,22.23
2022-11-29T19:16:43.040Z,22.30
2022-11-29T19:19:12.676Z,24.00
2022-11-29T19:21:40.862Z,24.77
2022-11-29T19:24:13.905Z,23.30
2022-11-29T19:26:44.246Z,22.90
2022-11-29T19:29:12.418Z,22.80
2022-11-29T19:31:40.394Z,23.40
2022-11-29T19:34:08.345Z,23.47
2022-11-29T19:36:42.602Z,22.30
2022-11-29T19:39:11.856Z,22.43
2022-11-29T19:41:39.810Z,24.00
2022-11-29T19:44:09.169Z,30.20
2022-11-29T19:46:38.630Z,23.90
2022-11-29T19:49:08.039Z,24.57
2022-11-29T19:51:37.540Z,23.43
2022-11-29T19:54:06.863Z,24.90
2022-11-29T19:56:35.250Z,23.47
2022-11-29T19:59:03.209Z,24.13
2022-11-29T20:01:40.111Z,22.53
2022-11-29T20:04:08.699Z,23.00
2022-11-29T20:06:38.060Z,23.77
2022-11-29T20:09:06.440Z,24.87
2022-11-29T20:11:34.359Z,23.67
2022-11-29T20:14:03.595Z,23.37
2022-11-29T20:16:32.333Z,24.53
2022-11-29T20:19:01.687Z,25.67
2022-11-29T20:21:31.447Z,28.73
2022-11-29T20:24:02.589Z,24.27
2022-11-29T20:26:32.031Z,24.10
2022-11-29T20:29:00.232Z,24.60
2022-11-29T20:31:28.568Z,25.83
2022-11-29T20:33:58.044Z,24.77
2022-11-29T20:36:37.670Z,22.47
2022-11-29T20:39:13.604Z,24.33
2022-11-29T20:41:46.390Z,21.80
2022-11-29T20:44:19.473Z,23.23
2022-11-29T20:46:47.757Z,23.70
2022-11-29T20:49:17.372Z,21.30
2022-11-29T20:51:50.818Z,23.60
2022-11-29T20:54:20.721Z,24.10
2022-11-29T20:56:48.924Z,23.90
2022-11-29T20:59:16.832Z,24.07
2022-11-29T21:01:44.817Z,22.77
2022-11-29T21:04:12.833Z,24.00
2022-11-29T21:06:40.901Z,23.47
2022-11-29T21:09:08.820Z,24.20
2022-11-29T21:11:38.854Z,21.83
2022-11-29T21:14:09.106Z,26.80
2022-11-29T21:16:37.358Z,23.90
2022-11-29T21:19:05.920Z,22.77
2022-11-29T21:21:36.130Z,22.27
2022-11-29T21:24:07.621Z,20.73
2022-11-29T21:26:41.956Z,22.67
2022-11-29T21:29:16.435Z,23.13
2022-11-29T21:31:45.175Z,21.57
2022-11-29T21:34:13.111Z,22.90
2022-11-29T21:36:41.377Z,21.70
2022-11-29T21:39:12.429Z,22.63
2022-11-29T21:41:41.995Z,22.00
2022-11-29T21:44:09.981Z,22.33
2022-11-29T21:46:38.039Z,21.70
2022-11-29T21:49:06.100Z,22.07
2022-11-29T21:51:33.990Z,24.97
2022-11-29T21:54:02.820Z,22.37
2022-11-29T21:56:30.716Z,22.90
2022-11-29T21:59:00.008Z,24.80
2022-11-29T22:01:28.181Z,20.90
2022-11-29T22:03:57.612Z,22.47
2022-11-29T22:06:26.343Z,22.40
2022-11-29T22:08:54.404Z,23.90
2022-11-29T22:11:31.751Z,21.67
2022-11-29T22:14:15.084Z,22.10
2022-11-29T22:16:44.319Z,22.77
2022-11-29T22:19:13.372Z,22.63
2022-11-29T22:21:41.620Z,24.30
2022-11-29T22:24:09.982Z,23.33
2022-11-29T22:26:38.489Z,22.27
2022-11-29T22:29:08.110Z,22.63
2022-11-29T22:31:36.973Z,23.50
2022-11-29T22:34:05.020Z,23.63
2022-11-29T22:36:33.014Z,23.23
2022-11-29T22:39:00.917Z,22.70
2022-11-29T22:41:28.908Z,23.20
2022-11-29T22:43:57.090Z,25.20
2022-11-29T22:46:27.837Z,26.03
2022-11-29T22:48:57.645Z,24.20
2022-11-29T22:51:27.291Z,24.57
2022-11-29T22:53:56.564Z,22.67
2022-11-29T22:56:25.553Z,24.37
2022-11-29T22:58:53.467Z,24.03
2022-11-29T23:01:22.502Z,22.50
2022-11-29T23:03:53.879Z,23.07
2022-11-29T23:06:23.720Z,22.77
2022-11-29T23:08:52.831Z,22.57
2022-11-29T23:11:22.622Z,23.03
2022-11-29T23:13:50.578Z,20.73
2022-11-29T23:16:20.890Z,22.40
2022-11-29T23:18:49.247Z,23.90
2022-11-29T23:21:20.067Z,23.63
2022-11-29T23:23:52.890Z,21.60
2022-11-29T23:26:26.073Z,23.00
2022-11-29T23:28:54.704Z,23.40
2022-11-29T23:31:23.636Z,23.10
2022-11-29T23:33:51.857Z,23.10
2022-11-29T23:36:21.474Z,21.40
2022-11-29T23:38:49.767Z,23.77
2022-11-29T23:41:18.366Z,22.93
2022-11-29T23:43:46.286Z,22.10
2022-11-29T23:46:15.982Z,23.20
2022-11-29T23:48:44.304Z,23.27
2022-11-29T23:51:12.835Z,21.93
2022-11-29T23:53:42.916Z,23.23
2022-11-29T23:56:13.636Z,21.93
2022-11-29T23:58:41.868Z,23.50
